Time;durP1;ratioP1;P1;durP2;ratioP2;P2;SDS_P1;SDS_P2;PMS_P1;PMS_P2;Temp;Humidity;BMP_temperature;BMP_pressure;BME280_temperature;BME280_humidity;BME280_pressure;Samples;Min_cycle;Max_cycle;Signal;HPM_P1;HPM_P2
2022/11/24 00:01:29;;;;;;;78.43;26.00;;;;;;;;;;5094463;28;20469;-71
2022/11/24 00:04:05;;;;;;;65.45;22.15;;;;;;;;;;5094269;28;20537;-71
2022/11/24 00:06:33;;;;;;;67.68;23.45;;;;;;;;;;5094009;28;20063;-73
2022/11/24 00:08:59;;;;;;;68.00;22.67;;;;;;;;;;5094047;28;20063;-72
2022/11/24 00:11:28;;;;;;;82.10;26.80;;;;;;;;;;5093821;28;20052;-68
2022/11/24 00:13:54;;;;;;;60.03;18.70;;;;;;;;;;5093680;28;20380;-68
2022/11/24 00:16:25;;;;;;;76.32;25.45;;;;;;;;;;5093576;28;20288;-75
2022/11/24 00:18:51;;;;;;;;;;;;;;;;;;5094217;28;20020;-72
2022/11/24 00:21:18;;;;;;;35.90;19.33;;;;;;;;;;5093941;28;19930;-69
2022/11/24 00:23:44;;;;;;;48.33;19.42;;;;;;;;;;5093762;28;20051;-76
2022/11/24 00:26:15;;;;;;;65.32;21.27;;;;;;;;;;5093765;28;20012;-76
2022/11/24 00:28:42;;;;;;;99.88;28.27;;;;;;;;;;5093578;28;20515;-77
2022/11/24 00:31:19;;;;;;;99.63;26.98;;;;;;;;;;5093509;28;20161;-78
2022/11/24 00:33:47;;;;;;;54.78;19.30;;;;;;;;;;5093034;28;20084;-77
2022/11/24 00:36:13;;;;;;;85.88;26.67;;;;;;;;;;5092779;28;20028;-78
2022/11/24 00:38:38;;;;;;;83.22;26.60;;;;;;;;;;5093678;28;20028;-78
2022/11/24 00:41:04;;;;;;;73.50;21.65;;;;;;;;;;5093253;28;20149;-78
2022/11/24 00:43:30;;;;;;;78.90;24.77;;;;;;;;;;5093180;28;20034;-71
2022/11/24 00:45:55;;;;;;;94.53;28.80;;;;;;;;;;5093118;28;20032;-71
2022/11/24 00:48:21;;;;;;;84.18;26.05;;;;;;;;;;5092797;28;20103;-71
2022/11/24 00:51:02;;;;;;;84.80;26.45;;;;;;;;;;5093190;28;20427;-68
2022/11/24 00:53:28;;;;;;;86.80;25.08;;;;;;;;;;5093075;28;20031;-76
2022/11/24 00:55:54;;;;;;;60.75;20.30;;;;;;;;;;5092897;28;20035;-70
2022/11/24 00:58:21;;;;;;;78.22;24.65;;;;;;;;;;5092776;28;20055;-68
2022/11/24 01:00:47;;;;;;;67.28;21.13;;;;;;;;;;5093256;28;20023;-76
2022/11/24 01:03:13;;;;;;;54.17;17.52;;;;;;;;;;5089705;28;20024;-76
2022/11/24 01:05:39;;;;;;;66.90;22.15;;;;;;;;;;5091609;28;20081;-67
2022/11/24 01:08:05;;;;;;;77.68;24.17;;;;;;;;;;5072612;28;20028;-67
2022/11/24 01:10:32;;;;;;;91.03;27.20;;;;;;;;;;5090267;28;20484;-69
2022/11/24 01:12:58;;;;;;;60.20;20.13;;;;;;;;;;5090083;28;20079;-70
2022/11/24 01:15:24;;;;;;;82.95;25.15;;;;;;;;;;5090551;28;20032;-67
2022/11/24 01:17:50;;;;;;;73.60;26.63;;;;;;;;;;5090428;28;20077;-68
2022/11/24 01:20:16;;;;;;;90.80;27.95;;;;;;;;;;5090267;28;20020;-71
2022/11/24 01:22:41;;;;;;;77.90;24.65;;;;;;;;;;5090719;28;20030;-76
2022/11/24 01:25:09;;;;;;;93.68;27.67;;;;;;;;;;5090286;28;20023;-68
2022/11/24 01:27:35;;;;;;;48.97;19.65;;;;;;;;;;5087580;28;20016;-71
2022/11/24 01:30:01;;;;;;;81.90;25.77;;;;;;;;;;5089829;28;20510;-70
2022/11/24 01:32:27;;;;;;;82.40;25.13;;;;;;;;;;5090284;28;20028;-70
2022/11/24 01:34:52;;;;;;;85.90;23.63;;;;;;;;;;5090027;28;20042;-71
2022/11/24 01:37:18;;;;;;;86.53;27.15;;;;;;;;;;5090226;28;20020;-71
2022/11/24 01:39:43;;;;;;;86.90;26.45;;;;;;;;;;5090088;28;20024;-68
2022/11/24 01:42:09;;;;;;;77.28;25.88;;;;;;;;;;5089752;28;20069;-69
2022/11/24 01:44:35;;;;;;;55.10;17.60;;;;;;;;;;5089927;28;20617;-70
2022/11/24 01:47:25;;;;;;;79.05;24.17;;;;;;;;;;5089982;28;20050;-76
2022/11/24 01:49:54;;;;;;;79.82;22.55;;;;;;;;;;5090016;28;20036;-71
2022/11/24 01:52:36;;;;;;;69.97;21.02;;;;;;;;;;5090997;28;20036;-68
2022/11/24 01:55:07;;;;;;;59.13;20.70;;;;;;;;;;5092079;28;20031;-68
2022/11/24 01:57:34;;;;;;;;;;;;;;;;;;5095936;28;20129;-72
2022/11/24 02:00:08;;;;;;;77.80;24.77;;;;;;;;;;5077107;28;19923;-73
2022/11/24 02:02:34;;;;;;;72.10;24.00;;;;;;;;;;5095112;28;20032;-74
2022/11/24 02:05:05;;;;;;;78.65;24.42;;;;;;;;;;5095059;28;20043;-70
2022/11/24 02:07:32;;;;;;;73.07;22.65;;;;;;;;;;5077510;28;20035;-73
2022/11/24 02:10:02;;;;;;;84.28;25.98;;;;;;;;;;5094733;28;20028;-71
2022/11/24 02:12:27;;;;;;;45.03;18.65;;;;;;;;;;5094572;28;20077;-70
2022/11/24 02:14:54;;;;;;;66.43;24.25;;;;;;;;;;5094873;28;20107;-70
2022/11/24 02:17:20;;;;;;;74.90;22.42;;;;;;;;;;5095110;28;20097;-71
2022/11/24 02:19:58;;;;;;;74.85;26.35;;;;;;;;;;5094891;28;20481;-71
2022/11/24 02:22:41;;;;;;;79.40;25.40;;;;;;;;;;5094589;28;20032;-68
2022/11/24 02:25:40;;;;;;;75.85;24.75;;;;;;;;;;5094025;28;20127;-72
2022/11/24 02:28:11;;;;;;;80.18;24.13;;;;;;;;;;5076018;28;20024;-68
2022/11/24 02:30:36;;;;;;;;;;;;;;;;;;5094478;28;20020;-71
2022/11/24 02:33:02;;;;;;;64.80;21.33;;;;;;;;;;5094086;28;19919;-69
2022/11/24 02:35:28;;;;;;;32.03;17.33;;;;;;;;;;5076171;28;20028;-67
2022/11/24 02:37:54;;;;;;;69.43;22.17;;;;;;;;;;5094619;28;20377;-70
2022/11/24 02:40:24;;;;;;;67.93;21.20;;;;;;;;;;5093629;28;20073;-68
2022/11/24 02:42:55;;;;;;;48.75;16.95;;;;;;;;;;5093951;28;20095;-74
2022/11/24 02:45:23;;;;;;;37.80;14.98;;;;;;;;;;5093910;28;20038;-73
2022/11/24 02:47:48;;;;;;;74.35;24.30;;;;;;;;;;5093839;28;20023;-72
2022/11/24 02:50:14;;;;;;;50.45;18.50;;;;;;;;;;5076158;28;20028;-69
2022/11/24 02:52:39;;;;;;;59.30;20.38;;;;;;;;;;5094224;28;20152;-76
2022/11/24 02:55:05;;;;;;;51.13;19.27;;;;;;;;;;5094124;28;20458;-76
2022/11/24 02:57:31;;;;;;;30.90;13.35;;;;;;;;;;5093785;28;20461;-76
2022/11/24 02:59:56;;;;;;;74.38;22.70;;;;;;;;;;5093574;28;20560;-77
2022/11/24 03:02:22;;;;;;;74.55;24.05;;;;;;;;;;5093532;28;20031;-76
2022/11/24 03:04:47;;;;;;;82.97;25.90;;;;;;;;;;5093534;28;20028;-77
2022/11/24 03:07:13;;;;;;;78.75;23.02;;;;;;;;;;5093319;28;20024;-77
2022/11/24 03:09:39;;;;;;;46.22;17.27;;;;;;;;;;5075666;28;20443;-75
2022/11/24 03:12:05;;;;;;;83.72;26.23;;;;;;;;;;5093715;28;20055;-76
2022/11/24 03:14:30;;;;;;;73.43;24.40;;;;;;;;;;5094482;28;20038;-77
2022/11/24 03:16:56;;;;;;;74.68;23.88;;;;;;;;;;5114191;28;20034;-77
2022/11/24 03:19:21;;;;;;;67.40;21.55;;;;;;;;;;5114188;28;20019;-73
2022/11/24 03:21:47;;;;;;;68.95;23.05;;;;;;;;;;5114166;28;20032;-75
2022/11/24 03:24:12;;;;;;;39.15;16.33;;;;;;;;;;5114186;28;20024;-78
2022/11/24 03:26:38;;;;;;;82.82;25.60;;;;;;;;;;5106533;28;20032;-73
2022/11/24 03:29:03;;;;;;;53.63;18.73;;;;;;;;;;5093117;28;20024;-75
2022/11/24 03:31:29;;;;;;;48.35;22.45;;;;;;;;;;5075170;28;20029;-76
2022/11/24 03:33:54;;;;;;;67.40;23.45;;;;;;;;;;5093356;28;20024;-77
2022/11/24 03:36:20;;;;;;;91.45;26.48;;;;;;;;;;5093179;28;20128;-73
2022/11/24 03:38:45;;;;;;;88.65;25.95;;;;;;;;;;5093621;28;20062;-75
2022/11/24 03:41:11;;;;;;;70.57;22.45;;;;;;;;;;5093565;28;20500;-73
2022/11/24 03:43:37;;;;;;;69.13;22.05;;;;;;;;;;5093439;28;20444;-77
2022/11/24 03:46:02;;;;;;;92.38;27.80;;;;;;;;;;5093420;28;20477;-73
2022/11/24 03:48:28;;;;;;;96.35;29.65;;;;;;;;;;5093211;28;20028;-77
2022/11/24 03:50:56;;;;;;;84.30;24.75;;;;;;;;;;5092976;28;20025;-77
2022/11/24 03:53:22;;;;;;;82.43;26.20;;;;;;;;;;5093230;28;20026;-74
2022/11/24 03:55:48;;;;;;;85.03;26.63;;;;;;;;;;5092875;28;20032;-75
2022/11/24 03:58:13;;;;;;;52.35;17.45;;;;;;;;;;5092447;28;20487;-74
2022/11/24 04:00:39;;;;;;;39.65;16.50;;;;;;;;;;5092355;28;20056;-77
2022/11/24 04:03:05;;;;;;;77.93;24.23;;;;;;;;;;5092405;28;20603;-76
2022/11/24 04:05:32;;;;;;;97.28;28.77;;;;;;;;;;5092868;28;20052;-69
2022/11/24 04:08:01;;;;;;;55.22;19.25;;;;;;;;;;5092833;28;20066;-77
2022/11/24 04:10:27;;;;;;;77.93;23.27;;;;;;;;;;5092782;28;20028;-72
2022/11/24 04:12:53;;;;;;;95.32;27.67;;;;;;;;;;5097766;28;20632;-70
2022/11/24 04:15:19;;;;;;;98.40;28.17;;;;;;;;;;5113027;28;20458;-70
2022/11/24 04:17:45;;;;;;;84.53;27.25;;;;;;;;;;5112452;28;20024;-68
2022/11/24 04:20:12;;;;;;;55.17;20.98;;;;;;;;;;5112749;28;20024;-68
2022/11/24 04:22:38;;;;;;;76.07;22.63;;;;;;;;;;5112760;28;20031;-71
2022/11/24 04:25:04;;;;;;;50.85;18.30;;;;;;;;;;5112613;28;20102;-68
2022/11/24 04:27:34;;;;;;;91.53;26.58;;;;;;;;;;5097472;28;20031;-69
2022/11/24 04:29:59;;;;;;;81.10;27.23;;;;;;;;;;5091827;28;20121;-68
2022/11/24 04:32:25;;;;;;;79.03;24.65;;;;;;;;;;5091656;28;20059;-69
2022/11/24 04:34:51;;;;;;;71.57;24.00;;;;;;;;;;5091770;28;20024;-68
2022/11/24 04:37:16;;;;;;;60.97;22.02;;;;;;;;;;5092433;28;20034;-70
2022/11/24 04:39:42;;;;;;;82.63;26.00;;;;;;;;;;5092554;28;20051;-75
2022/11/24 04:42:08;;;;;;;78.85;27.30;;;;;;;;;;5092244;28;20020;-78
2022/11/24 04:44:33;;;;;;;93.25;27.45;;;;;;;;;;5092249;28;20652;-71
2022/11/24 04:47:00;;;;;;;57.25;22.15;;;;;;;;;;5092113;28;20044;-71
2022/11/24 04:49:25;;;;;;;77.60;23.77;;;;;;;;;;5091930;28;20394;-76
2022/11/24 04:51:51;;;;;;;81.35;23.67;;;;;;;;;;5091957;28;20024;-75
2022/11/24 04:54:16;;;;;;;102.38;29.63;;;;;;;;;;5092086;28;20028;-74
2022/11/24 04:56:42;;;;;;;88.32;26.45;;;;;;;;;;5091492;28;20032;-76
2022/11/24 04:59:18;;;;;;;108.55;30.98;;;;;;;;;;5090256;28;20485;-77
2022/11/24 05:01:45;;;;;;;100.53;27.88;;;;;;;;;;5071185;28;20026;-77
2022/11/24 05:04:12;;;;;;;75.50;24.85;;;;;;;;;;5070986;28;20085;-77
2022/11/24 05:06:38;;;;;;;114.22;30.48;;;;;;;;;;5071641;28;20035;-77
2022/11/24 05:09:04;;;;;;;99.32;28.95;;;;;;;;;;5071352;28;20025;-77
2022/11/24 05:11:29;;;;;;;91.82;29.15;;;;;;;;;;5071128;28;20027;-77
2022/11/24 05:13:55;;;;;;;98.00;31.30;;;;;;;;;;5099657;28;20020;-75
2022/11/24 05:16:20;;;;;;;110.40;33.13;;;;;;;;;;5111794;28;20035;-73
2022/11/24 05:18:46;;;;;;;101.00;31.10;;;;;;;;;;5111813;28;20028;-78
2022/11/24 05:21:12;;;;;;;100.88;32.17;;;;;;;;;;5111736;28;20498;-78
2022/11/24 05:23:37;;;;;;;64.57;20.35;;;;;;;;;;5093789;28;20140;-78
2022/11/24 05:26:03;;;;;;;95.50;28.92;;;;;;;;;;5109311;28;20107;-78
2022/11/24 05:28:29;;;;;;;87.90;27.23;;;;;;;;;;5090687;28;20020;-78
2022/11/24 05:31:02;;;;;;;104.40;29.60;;;;;;;;;;5090322;28;20544;-75
2022/11/24 05:33:28;;;;;;;86.70;27.33;;;;;;;;;;5090506;28;20424;-73
2022/11/24 05:35:58;;;;;;;89.38;29.40;;;;;;;;;;5091034;28;20028;-75
2022/11/24 05:38:25;;;;;;;51.55;20.60;;;;;;;;;;5091165;28;20024;-78
2022/11/24 05:40:51;;;;;;;98.45;29.88;;;;;;;;;;5091140;28;20028;-73
2022/11/24 05:43:17;;;;;;;92.35;28.63;;;;;;;;;;5091130;28;20031;-74
2022/11/24 05:45:43;;;;;;;63.58;24.63;;;;;;;;;;5091252;28;20032;-76
2022/11/24 05:48:14;;;;;;;101.05;31.25;;;;;;;;;;5072296;28;20059;-76
2022/11/24 05:50:40;;;;;;;92.28;29.02;;;;;;;;;;5091008;28;20036;-73
2022/11/24 05:53:09;;;;;;;108.88;29.75;;;;;;;;;;5091244;28;20031;-74
2022/11/24 05:55:35;;;;;;;99.43;29.08;;;;;;;;;;5090811;28;20063;-77
2022/11/24 05:58:03;;;;;;;66.45;22.38;;;;;;;;;;5090939;28;20476;-78
2022/11/24 06:00:30;;;;;;;99.80;30.27;;;;;;;;;;5090439;28;20020;-77
2022/11/24 06:02:57;;;;;;;103.22;29.77;;;;;;;;;;5090246;28;20047;-68
2022/11/24 06:05:23;;;;;;;103.95;28.40;;;;;;;;;;5090692;28;20024;-77
2022/11/24 06:07:49;;;;;;;70.38;23.55;;;;;;;;;;5090762;28;20039;-77
2022/11/24 06:10:16;;;;;;;79.13;25.17;;;;;;;;;;5090957;28;20075;-76
2022/11/24 06:12:41;;;;;;;104.10;30.15;;;;;;;;;;5094443;28;20036;-77
2022/11/24 06:15:07;;;;;;;101.03;29.05;;;;;;;;;;5111067;28;20027;-74
2022/11/24 06:17:33;;;;;;;104.45;30.55;;;;;;;;;;5092698;28;20158;-68
2022/11/24 06:19:59;;;;;;;104.18;29.00;;;;;;;;;;5111129;28;20110;-74
2022/11/24 06:22:24;;;;;;;86.22;25.02;;;;;;;;;;5111273;28;20082;-69
2022/11/24 06:24:50;;;;;;;97.35;27.38;;;;;;;;;;5111049;28;20032;-68
2022/11/24 06:27:15;;;;;;;95.80;24.52;;;;;;;;;;5098374;28;20110;-77
2022/11/24 06:29:41;;;;;;;96.63;28.88;;;;;;;;;;5090153;28;20467;-70
2022/11/24 06:32:06;;;;;;;65.75;21.23;;;;;;;;;;5089880;28;20058;-76
2022/11/24 06:34:31;;;;;;;77.13;25.35;;;;;;;;;;5090223;28;20024;-75
2022/11/24 06:36:57;;;;;;;92.10;27.13;;;;;;;;;;5090703;28;20480;-75
2022/11/24 06:39:22;;;;;;;110.15;31.90;;;;;;;;;;5090668;28;20089;-71
2022/11/24 06:41:52;;;;;;;103.75;29.05;;;;;;;;;;5093246;28;20024;-70
2022/11/24 06:44:18;;;;;;;109.85;31.90;;;;;;;;;;5094428;28;20031;-76
2022/11/24 06:46:43;;;;;;;105.05;28.98;;;;;;;;;;5094477;28;20147;-77
2022/11/24 06:49:09;;;;;;;98.22;28.63;;;;;;;;;;5094201;28;20070;-70
2022/11/24 06:51:35;;;;;;;72.35;22.10;;;;;;;;;;5094448;28;20028;-76
2022/11/24 06:54:00;;;;;;;96.05;27.40;;;;;;;;;;5094419;28;20133;-72
2022/11/24 06:56:26;;;;;;;58.67;20.95;;;;;;;;;;5093481;28;20035;-73
2022/11/24 06:58:53;;;;;;;94.90;28.30;;;;;;;;;;5093262;28;20323;-76
2022/11/24 07:01:24;;;;;;;70.28;20.40;;;;;;;;;;5075327;28;20024;-69
2022/11/24 07:03:51;;;;;;;106.95;29.58;;;;;;;;;;5093504;28;20366;-67
2022/11/24 07:06:17;;;;;;;119.63;30.58;;;;;;;;;;5093784;28;20158;-72
2022/11/24 07:08:44;;;;;;;111.13;31.67;;;;;;;;;;5093860;28;20024;-74
2022/11/24 07:11:14;;;;;;;121.22;32.72;;;;;;;;;;5093274;28;20036;-73
2022/11/24 07:13:43;;;;;;;106.15;29.90;;;;;;;;;;5105171;28;20088;-68
2022/11/24 07:16:10;;;;;;;111.65;31.00;;;;;;;;;;5113851;28;20426;-73
2022/11/24 07:18:36;;;;;;;102.68;28.98;;;;;;;;;;5113835;28;20024;-78
2022/11/24 07:21:03;;;;;;;103.88;31.55;;;;;;;;;;5114137;28;20350;-78
2022/11/24 07:23:29;;;;;;;115.35;30.67;;;;;;;;;;5114053;28;20566;-78
2022/11/24 07:25:54;;;;;;;98.78;28.27;;;;;;;;;;5112741;28;20055;-77
2022/11/24 07:28:19;;;;;;;93.15;27.38;;;;;;;;;;5092810;28;20469;-78
2022/11/24 07:30:45;;;;;;;94.55;27.20;;;;;;;;;;5092910;28;20111;-78
2022/11/24 07:33:10;;;;;;;80.72;24.85;;;;;;;;;;5092920;28;20020;-77
2022/11/24 07:35:36;;;;;;;96.18;26.05;;;;;;;;;;5093166;28;20465;-76
2022/11/24 07:38:01;;;;;;;84.15;24.42;;;;;;;;;;5093457;28;20024;-77
2022/11/24 07:40:27;;;;;;;92.72;25.02;;;;;;;;;;5093369;28;20031;-79
2022/11/24 07:42:53;;;;;;;86.25;26.77;;;;;;;;;;5093270;28;20044;-76
2022/11/24 07:45:18;;;;;;;104.15;27.92;;;;;;;;;;5093211;28;20427;-71
2022/11/24 07:47:44;;;;;;;85.70;18.95;;;;;;;;;;5093180;28;20380;-75
2022/11/24 07:50:10;;;;;;;108.00;28.45;;;;;;;;;;5092788;28;20043;-74
2022/11/24 07:52:36;;;;;;;97.10;25.00;;;;;;;;;;5092340;28;20032;-68
2022/11/24 07:55:02;;;;;;;85.95;24.30;;;;;;;;;;5092877;28;20024;-69
2022/11/24 07:57:28;;;;;;;111.45;26.38;;;;;;;;;;5092436;28;20032;-67
2022/11/24 07:59:54;;;;;;;114.25;28.48;;;;;;;;;;5092185;28;20465;-67
2022/11/24 08:02:20;;;;;;;100.43;28.83;;;;;;;;;;5092114;28;20417;-68
2022/11/24 08:04:45;;;;;;;107.10;30.63;;;;;;;;;;5092213;28;20020;-76
2022/11/24 08:07:11;;;;;;;104.32;28.08;;;;;;;;;;5091837;28;20028;-70
2022/11/24 08:09:36;;;;;;;110.80;27.80;;;;;;;;;;5084091;28;20032;-67
2022/11/24 08:12:02;;;;;;;99.78;26.05;;;;;;;;;;5086270;28;20044;-67
2022/11/24 08:14:27;;;;;;;88.00;22.80;;;;;;;;;;5093975;28;20109;-68
2022/11/24 08:16:53;;;;;;;83.63;22.40;;;;;;;;;;5093565;28;20354;-72
2022/11/24 08:19:18;;;;;;;93.53;25.95;;;;;;;;;;5093851;28;20023;-73
2022/11/24 08:21:44;;;;;;;79.28;25.17;;;;;;;;;;5093666;28;20500;-77
2022/11/24 08:24:09;;;;;;;106.82;24.60;;;;;;;;;;5093109;28;20438;-75
2022/11/24 08:26:34;;;;;;;86.22;26.63;;;;;;;;;;5093438;28;20051;-77
2022/11/24 08:29:00;;;;;;;77.38;22.20;;;;;;;;;;5093740;28;20063;-77
2022/11/24 08:31:31;;;;;;;98.55;26.70;;;;;;;;;;5093890;28;20086;-78
2022/11/24 08:33:58;;;;;;;99.68;25.02;;;;;;;;;;5093657;28;20016;-77
2022/11/24 08:36:24;;;;;;;84.82;23.73;;;;;;;;;;5093364;28;20036;-76
2022/11/24 08:38:57;;;;;;;107.70;25.95;;;;;;;;;;5093657;28;20123;-77
2022/11/24 08:41:23;;;;;;;95.93;24.45;;;;;;;;;;5093295;28;20024;-74
2022/11/24 08:43:48;;;;;;;110.28;27.00;;;;;;;;;;5093646;28;20494;-78
2022/11/24 08:46:16;;;;;;;77.25;23.38;;;;;;;;;;5093575;28;20103;-76
2022/11/24 08:48:43;;;;;;;81.18;24.85;;;;;;;;;;5075104;28;20039;-77
2022/11/24 08:51:14;;;;;;;63.45;19.33;;;;;;;;;;5093374;28;20385;-71
2022/11/24 08:53:40;;;;;;;80.97;25.75;;;;;;;;;;5093142;28;20109;-78
2022/11/24 08:56:07;;;;;;;89.50;26.27;;;;;;;;;;5092950;28;20032;-68
2022/11/24 08:58:33;;;;;;;108.03;25.77;;;;;;;;;;5081115;28;20028;-74
2022/11/24 09:01:04;;;;;;;91.05;26.60;;;;;;;;;;5083477;28;20025;-76
2022/11/24 09:03:30;;;;;;;86.78;25.40;;;;;;;;;;5076735;28;20024;-73
2022/11/24 09:05:55;;;;;;;106.32;25.75;;;;;;;;;;5092736;28;20028;-74
2022/11/24 09:08:21;;;;;;;81.97;24.88;;;;;;;;;;5092968;28;20024;-69
2022/11/24 09:10:46;;;;;;;80.50;23.73;;;;;;;;;;5074351;28;20394;-74
2022/11/24 09:13:12;;;;;;;68.65;20.00;;;;;;;;;;5100324;28;20075;-69
2022/11/24 09:15:37;;;;;;;75.05;23.40;;;;;;;;;;5113126;28;20050;-74
2022/11/24 09:18:03;;;;;;;81.35;23.00;;;;;;;;;;5113319;28;20054;-69
2022/11/24 09:20:28;;;;;;;100.97;23.75;;;;;;;;;;5113087;28;20054;-74
2022/11/24 09:22:55;;;;;;;69.95;22.42;;;;;;;;;;5104626;28;20521;-74
2022/11/24 09:25:22;;;;;;;93.72;23.60;;;;;;;;;;5090783;28;20055;-71
2022/11/24 09:27:49;;;;;;;99.78;25.00;;;;;;;;;;5093220;28;20110;-68
2022/11/24 09:30:15;;;;;;;47.90;16.00;;;;;;;;;;5092608;28;20028;-67
2022/11/24 09:32:40;;;;;;;93.18;24.55;;;;;;;;;;5092609;28;20036;-71
2022/11/24 09:35:06;;;;;;;70.85;23.58;;;;;;;;;;5092011;28;20039;-69
2022/11/24 09:37:33;;;;;;;75.95;24.80;;;;;;;;;;5092437;28;20035;-77
2022/11/24 09:39:58;;;;;;;73.53;24.33;;;;;;;;;;5092343;28;20374;-78
2022/11/24 09:42:54;;;;;;;79.85;23.30;;;;;;;;;;5091883;28;20016;-75
2022/11/24 09:45:53;;;;;;;69.95;22.65;;;;;;;;;;5090598;28;20055;-77
2022/11/24 09:48:27;;;;;;;75.63;22.23;;;;;;;;;;5091903;28;20023;-77
2022/11/24 09:50:58;;;;;;;88.90;24.05;;;;;;;;;;5089563;28;20057;-77
2022/11/24 09:53:52;;;;;;;87.53;25.42;;;;;;;;;;5091839;28;20016;-77
2022/11/24 09:56:23;;;;;;;83.38;22.35;;;;;;;;;;5072039;28;20434;-70
2022/11/24 09:59:21;;;;;;;69.85;21.50;;;;;;;;;;5072024;28;20044;-68
2022/11/24 10:01:47;;;;;;;74.53;21.80;;;;;;;;;;5029736;28;20118;-68
2022/11/24 10:04:19;;;;;;;97.07;22.00;;;;;;;;;;5029532;28;20053;-68
2022/11/24 10:06:56;;;;;;;71.50;21.33;;;;;;;;;;5029799;28;20429;-77
2022/11/24 10:09:49;;;;;;;77.07;22.83;;;;;;;;;;5029809;28;20033;-77
2022/11/24 10:12:23;;;;;;;72.30;22.23;;;;;;;;;;5029574;28;20604;-75
2022/11/24 10:15:17;;;;;;;77.80;24.35;;;;;;;;;;5029877;28;20034;-78
2022/11/24 10:18:17;;;;;;;68.38;23.27;;;;;;;;;;5033994;28;20033;-71
2022/11/24 10:21:13;;;;;;;74.22;23.85;;;;;;;;;;5033684;28;20530;-67
2022/11/24 10:24:07;;;;;;;62.25;20.33;;;;;;;;;;5033636;28;20475;-67
2022/11/24 10:26:38;;;;;;;62.30;19.52;;;;;;;;;;5033616;28;20161;-69
2022/11/24 10:29:35;;;;;;;44.47;14.82;;;;;;;;;;5033345;28;20034;-67
2022/11/24 10:32:06;;;;;;;45.70;17.08;;;;;;;;;;5028491;28;20474;-67
2022/11/24 10:34:36;;;;;;;30.73;13.43;;;;;;;;;;5033485;28;20033;-67
2022/11/24 10:37:11;;;;;;;72.82;22.65;;;;;;;;;;5055395;28;20563;-67
2022/11/24 10:39:42;;;;;;;75.43;23.08;;;;;;;;;;5096278;28;20123;-68
2022/11/24 10:42:14;;;;;;;87.53;25.23;;;;;;;;;;5095732;28;20059;-67
2022/11/24 10:44:40;;;;;;;66.78;18.55;;;;;;;;;;5095637;28;20031;-67
2022/11/24 10:47:32;;;;;;;82.40;25.17;;;;;;;;;;5095602;28;20043;-67
2022/11/24 10:50:11;;;;;;;52.03;18.83;;;;;;;;;;5091576;28;20477;-67
2022/11/24 10:52:43;;;;;;;46.90;15.43;;;;;;;;;;5095267;28;20016;-67
2022/11/24 10:55:09;;;;;;;79.55;24.27;;;;;;;;;;5095403;28;20132;-68
2022/11/24 10:57:37;;;;;;;69.03;22.95;;;;;;;;;;5095499;28;20505;-67
2022/11/24 11:00:18;;;;;;;73.80;24.42;;;;;;;;;;5095439;28;20047;-67
2022/11/24 11:02:44;;;;;;;90.35;24.42;;;;;;;;;;5095397;28;20024;-69
2022/11/24 11:05:25;;;;;;;52.65;17.33;;;;;;;;;;5095319;28;20062;-67
2022/11/24 11:08:19;;;;;;;80.32;24.15;;;;;;;;;;5094849;28;20040;-67
2022/11/24 11:10:46;;;;;;;96.35;35.13;;;;;;;;;;5095423;28;20031;-68
2022/11/24 11:13:32;;;;;;;79.20;24.17;;;;;;;;;;5102765;28;20035;-68
2022/11/24 11:15:58;;;;;;;65.70;19.52;;;;;;;;;;5115840;28;20035;-68
2022/11/24 11:18:32;;;;;;;83.00;23.60;;;;;;;;;;5115377;28;20463;-68
2022/11/24 11:21:03;;;;;;;71.97;22.55;;;;;;;;;;5115314;28;20464;-67
2022/11/24 11:23:30;;;;;;;73.53;22.98;;;;;;;;;;5115337;28;20027;-68
2022/11/24 11:26:19;;;;;;;82.15;26.05;;;;;;;;;;5114446;28;20068;-68
2022/11/24 11:29:12;;;;;;;75.40;24.27;;;;;;;;;;5093393;28;20077;-70
2022/11/24 11:31:38;;;;;;;85.38;25.23;;;;;;;;;;5094882;28;20433;-67
2022/11/24 11:34:09;;;;;;;73.78;24.83;;;;;;;;;;5091834;28;20063;-68
2022/11/24 11:36:44;;;;;;;80.32;24.98;;;;;;;;;;5089316;28;20036;-67
2022/11/24 11:39:39;;;;;;;79.72;24.30;;;;;;;;;;5081606;28;20017;-71
2022/11/24 11:42:14;;;;;;;96.80;26.45;;;;;;;;;;5074469;28;20028;-68
2022/11/24 11:45:07;;;;;;;90.15;26.08;;;;;;;;;;5074300;28;20024;-75
2022/11/24 11:47:41;;;;;;;93.65;26.63;;;;;;;;;;5074220;28;20386;-76
2022/11/24 11:50:15;;;;;;;77.07;23.90;;;;;;;;;;5074118;28;20029;-71
2022/11/24 11:53:03;;;;;;;78.28;24.20;;;;;;;;;;5073928;28;20112;-68
2022/11/24 11:55:53;;;;;;;71.75;22.27;;;;;;;;;;5074111;28;20029;-70
2022/11/24 11:58:49;;;;;;;82.65;24.90;;;;;;;;;;5074479;28;20115;-78
2022/11/24 12:01:14;;;;;;;79.28;25.73;;;;;;;;;;5074135;28;20056;-76
2022/11/24 12:04:08;;;;;;;85.60;25.65;;;;;;;;;;5073621;28;20151;-76
2022/11/24 12:06:56;;;;;;;65.28;21.38;;;;;;;;;;5073889;28;20029;-71
2022/11/24 12:09:34;;;;;;;93.47;27.60;;;;;;;;;;4992251;28;20085;-71
2022/11/24 12:12:11;;;;;;;90.47;27.10;;;;;;;;;;4975836;28;20085;-71
2022/11/24 12:14:39;;;;;;;99.50;29.17;;;;;;;;;;5030673;28;20048;-77
2022/11/24 12:17:39;;;;;;;92.88;25.90;;;;;;;;;;5031674;28;20037;-75
2022/11/24 12:20:44;;;;;;;81.88;26.50;;;;;;;;;;5031429;28;20064;-70
2022/11/24 12:23:26;;;;;;;92.65;26.50;;;;;;;;;;5031515;28;20029;-72
2022/11/24 12:26:26;;;;;;;83.63;26.63;;;;;;;;;;5030804;28;20029;-77
2022/11/24 12:29:15;;;;;;;79.68;24.17;;;;;;;;;;5011741;28;20030;-69
2022/11/24 12:31:54;;;;;;;77.75;24.00;;;;;;;;;;5011650;28;20040;-67
2022/11/24 12:34:44;;;;;;;79.85;23.75;;;;;;;;;;5011829;28;20526;-67
2022/11/24 12:37:40;;;;;;;88.20;23.42;;;;;;;;;;5011619;28;20531;-68
2022/11/24 12:40:27;;;;;;;82.70;24.00;;;;;;;;;;5011091;28;20463;-73
2022/11/24 12:43:08;;;;;;;93.50;26.23;;;;;;;;;;5011605;28;20034;-70
2022/11/24 12:45:34;;;;;;;82.75;24.05;;;;;;;;;;5020995;28;20048;-70
2022/11/24 12:48:14;;;;;;;86.50;26.85;;;;;;;;;;5073174;28;20433;-69
2022/11/24 12:50:43;;;;;;;33.47;13.88;;;;;;;;;;5072930;28;20051;-70
2022/11/24 12:53:19;;;;;;;121.35;26.08;;;;;;;;;;5072930;28;20478;-68
2022/11/24 12:55:45;;;;;;;99.97;25.58;;;;;;;;;;5073229;28;20025;-67
2022/11/24 12:58:35;;;;;;;89.85;23.15;;;;;;;;;;5072772;28;20024;-68
2022/11/24 13:01:24;;;;;;;92.22;23.85;;;;;;;;;;5072435;28;20043;-73
2022/11/24 13:04:40;;;;;;;98.65;27.75;;;;;;;;;;5072583;28;20030;-68
2022/11/24 13:07:12;;;;;;;76.68;22.13;;;;;;;;;;5010899;28;20072;-68
2022/11/24 13:09:57;;;;;;;105.45;27.08;;;;;;;;;;5010715;28;20120;-68
2022/11/24 13:12:22;;;;;;;106.85;27.63;;;;;;;;;;5011480;28;20142;-68
2022/11/24 13:14:48;;;;;;;86.47;22.80;;;;;;;;;;5030618;28;20041;-68
2022/11/24 13:17:25;;;;;;;115.15;29.25;;;;;;;;;;5030213;28;20037;-73
2022/11/24 13:20:23;;;;;;;110.78;30.52;;;;;;;;;;5030025;28;20049;-68
2022/11/24 13:22:52;;;;;;;113.15;28.65;;;;;;;;;;5029534;28;20029;-68
2022/11/24 13:25:27;;;;;;;94.85;28.48;;;;;;;;;;5020168;28;20048;-68
2022/11/24 13:27:56;;;;;;;89.53;26.92;;;;;;;;;;5027426;28;20072;-67
2022/11/24 13:30:33;;;;;;;102.65;25.73;;;;;;;;;;5013609;28;20021;-73
2022/11/24 13:33:12;;;;;;;106.68;26.85;;;;;;;;;;5029940;28;20029;-69
2022/11/24 13:35:39;;;;;;;84.75;25.33;;;;;;;;;;5030178;28;20040;-69
2022/11/24 13:38:39;;;;;;;97.72;28.77;;;;;;;;;;5055047;28;20040;-67
2022/11/24 13:41:09;;;;;;;;;;;;;;;;;;5072560;28;20028;-68
2022/11/24 13:43:35;;;;;;;103.05;24.95;;;;;;;;;;5072133;28;20242;-68
2022/11/24 13:46:02;;;;;;;94.88;27.20;;;;;;;;;;5072247;28;20017;-68
2022/11/24 13:48:28;;;;;;;95.55;26.85;;;;;;;;;;5071555;28;20478;-68
2022/11/24 13:50:53;;;;;;;75.70;21.23;;;;;;;;;;5071387;28;20024;-67
2022/11/24 13:53:28;;;;;;;101.07;27.02;;;;;;;;;;5071991;28;20024;-67
2022/11/24 13:56:02;;;;;;;79.18;24.73;;;;;;;;;;5072163;28;20028;-70
2022/11/24 13:58:37;;;;;;;107.68;26.50;;;;;;;;;;5071890;28;20509;-69
2022/11/24 14:01:21;;;;;;;90.15;23.77;;;;;;;;;;5072118;28;20381;-68
2022/11/24 14:03:53;;;;;;;105.32;27.70;;;;;;;;;;5071815;28;20029;-69
2022/11/24 14:06:34;;;;;;;94.10;26.30;;;;;;;;;;5054078;28;20052;-69
2022/11/24 14:09:06;;;;;;;98.97;28.13;;;;;;;;;;5072003;28;20118;-72
2022/11/24 14:11:31;;;;;;;101.18;27.83;;;;;;;;;;5071812;28;20020;-69
2022/11/24 14:13:57;;;;;;;115.72;27.50;;;;;;;;;;5100544;28;20502;-68
2022/11/24 14:16:23;;;;;;;107.30;26.80;;;;;;;;;;5112085;28;20144;-77
2022/11/24 14:18:50;;;;;;;99.40;25.23;;;;;;;;;;5112472;28;20484;-78
2022/11/24 14:21:18;;;;;;;98.68;26.48;;;;;;;;;;5112367;28;20035;-76
2022/11/24 14:23:47;;;;;;;77.30;21.95;;;;;;;;;;5112285;28;20104;-78
2022/11/24 14:26:26;;;;;;;107.57;25.65;;;;;;;;;;5108990;28;20105;-76
2022/11/24 14:28:53;;;;;;;95.40;26.05;;;;;;;;;;5092125;28;20033;-71
2022/11/24 14:31:24;;;;;;;86.50;25.08;;;;;;;;;;5091611;28;20028;-78
2022/11/24 14:34:05;;;;;;;90.97;24.92;;;;;;;;;;5091984;28;20024;-76
2022/11/24 14:36:31;;;;;;;78.13;22.90;;;;;;;;;;5091650;28;20431;-76